createdAt,value
2023-05-21T00:02:04.628Z,7.32
2023-05-21T00:08:08.889Z,7.32
2023-05-21T00:14:12.895Z,7.88
2023-05-21T00:20:18.001Z,7.63
2023-05-21T00:26:21.820Z,8.68
2023-05-21T00:32:25.315Z,8.60
2023-05-21T00:38:32.989Z,8.57
2023-05-21T00:44:36.452Z,8.15
2023-05-21T00:50:40.752Z,8.63
2023-05-21T00:56:45.602Z,9.27
2023-05-21T01:02:50.169Z,9.13
2023-05-21T01:08:54.061Z,8.80
2023-05-21T01:14:59.358Z,9.20
2023-05-21T01:21:02.882Z,10.25
2023-05-21T01:27:10.473Z,10.38
2023-05-21T01:33:17.421Z,10.85
2023-05-21T01:39:24.861Z,10.77
2023-05-21T01:45:30.923Z,11.50
2023-05-21T01:51:34.462Z,11.65
2023-05-21T01:57:38.228Z,11.95
2023-05-21T02:03:43.125Z,11.07
2023-05-21T02:09:46.698Z,10.90
2023-05-21T02:15:51.731Z,11.18
2023-05-21T02:21:56.671Z,11.18
2023-05-21T02:28:01.009Z,12.00
2023-05-21T02:34:04.516Z,11.25
2023-05-21T02:40:10.907Z,12.15
2023-05-21T02:46:14.363Z,12.10
2023-05-21T02:52:18.582Z,11.93
2023-05-21T02:58:25.278Z,12.43
2023-05-21T03:04:29.203Z,13.05
2023-05-21T03:10:32.890Z,12.57
2023-05-21T03:16:38.137Z,12.60
2023-05-21T03:22:41.679Z,12.70
2023-05-21T03:28:45.093Z,13.38
2023-05-21T03:34:49.875Z,12.38
2023-05-21T03:40:53.690Z,12.90
2023-05-21T03:46:57.170Z,13.07
2023-05-21T03:53:02.120Z,13.02
2023-05-21T03:59:05.646Z,12.82
2023-05-21T04:05:09.443Z,13.27
2023-05-21T04:11:14.251Z,12.00
2023-05-21T04:17:19.297Z,13.07
2023-05-21T04:23:24.430Z,12.20
2023-05-21T04:29:29.990Z,11.52
2023-05-21T04:35:34.028Z,11.50
2023-05-21T04:41:38.472Z,11.15
2023-05-21T04:47:44.809Z,10.68
2023-05-21T04:53:49.958Z,10.50
2023-05-21T04:59:53.827Z,10.50
2023-05-21T05:05:58.812Z,9.80
2023-05-21T05:12:02.226Z,9.60
2023-05-21T05:18:06.654Z,10.13
2023-05-21T05:24:11.480Z,10.40
2023-05-21T05:30:14.958Z,10.25
2023-05-21T05:36:18.438Z,9.85
2023-05-21T05:42:23.347Z,10.98
2023-05-21T05:48:26.788Z,10.13
2023-05-21T05:54:30.280Z,9.65
2023-05-21T06:00:35.142Z,9.40
2023-05-21T06:06:38.787Z,9.07
2023-05-21T06:12:42.250Z,9.05
2023-05-21T06:18:47.168Z,8.98
2023-05-21T06:24:50.661Z,8.60
2023-05-21T06:30:54.143Z,8.27
2023-05-21T06:36:59.006Z,8.93
2023-05-21T06:43:04.817Z,8.40
2023-05-21T06:49:08.279Z,8.30
2023-05-21T06:55:13.325Z,8.25
2023-05-21T07:01:17.082Z,7.95
2023-05-21T07:07:20.647Z,8.60
2023-05-21T07:13:25.688Z,7.38
2023-05-21T07:19:29.179Z,7.13
2023-05-21T07:25:32.893Z,7.35
2023-05-21T07:31:37.842Z,6.32
2023-05-21T07:37:41.913Z,6.20
2023-05-21T07:43:45.434Z,6.05
2023-05-21T07:49:50.507Z,5.90
2023-05-21T07:55:54.267Z,6.13
2023-05-21T08:01:57.733Z,5.55
2023-05-21T08:08:02.553Z,5.72
2023-05-21T08:14:06.479Z,5.55
2023-05-21T08:20:10.718Z,5.20
2023-05-21T08:26:17.264Z,6.28
2023-05-21T08:32:20.879Z,5.90
2023-05-21T08:38:24.396Z,5.40
2023-05-21T08:44:31.098Z,5.10
2023-05-21T08:50:34.578Z,4.78
2023-05-21T08:56:38.264Z,5.18
2023-05-21T09:02:44.070Z,4.90
2023-05-21T09:08:51.459Z,5.43
2023-05-21T09:14:55.012Z,5.00
2023-05-21T09:21:00.819Z,5.10
2023-05-21T09:27:04.337Z,5.03
2023-05-21T09:33:07.854Z,4.97
2023-05-21T09:39:16.609Z,4.60
2023-05-21T09:45:20.656Z,4.60
2023-05-21T09:51:24.242Z,4.45
2023-05-21T09:57:29.352Z,4.40
2023-05-21T10:03:34.211Z,3.85
2023-05-21T10:09:37.771Z,4.43
2023-05-21T10:15:44.934Z,4.85
2023-05-21T10:21:50.386Z,4.22
2023-05-21T10:27:55.737Z,5.00
2023-05-21T10:34:01.074Z,4.78
2023-05-21T10:40:05.304Z,5.65
2023-05-21T10:46:23.910Z,5.38
2023-05-21T10:52:36.625Z,6.07
2023-05-21T10:58:53.253Z,6.30
2023-05-21T11:05:00.310Z,7.00
2023-05-21T11:11:05.604Z,7.05
2023-05-21T11:17:13.565Z,7.95
2023-05-21T11:23:17.836Z,6.70
2023-05-21T11:29:22.737Z,8.13
2023-05-21T11:35:26.324Z,9.38
2023-05-21T11:41:29.757Z,8.70
2023-05-21T11:47:34.685Z,8.98
2023-05-21T11:53:39.368Z,8.95
2023-05-21T11:59:43.347Z,8.52
2023-05-21T12:05:48.849Z,8.70
2023-05-21T12:11:53.201Z,8.38
2023-05-21T12:17:58.101Z,8.20
2023-05-21T12:24:03.979Z,8.50
2023-05-21T12:30:08.398Z,9.10
2023-05-21T12:36:12.037Z,8.05
2023-05-21T12:42:17.083Z,7.75
2023-05-21T12:48:20.804Z,7.35
2023-05-21T12:54:30.290Z,6.88
2023-05-21T13:00:35.694Z,7.35
2023-05-21T13:06:45.268Z,7.00
2023-05-21T13:12:48.723Z,8.07
2023-05-21T13:18:53.768Z,7.63
2023-05-21T13:24:57.275Z,8.05
2023-05-21T13:31:00.702Z,6.93
2023-05-21T13:37:05.608Z,7.13
2023-05-21T13:43:09.087Z,6.72
2023-05-21T13:49:12.547Z,6.78
2023-05-21T13:55:17.445Z,5.78
2023-05-21T14:01:20.890Z,6.35
2023-05-21T14:07:24.797Z,6.50
2023-05-21T14:13:30.643Z,6.65
2023-05-21T14:19:34.207Z,6.57
2023-05-21T14:25:37.963Z,5.93
2023-05-21T14:31:42.976Z,5.85
2023-05-21T14:37:46.403Z,6.00
2023-05-21T14:43:49.841Z,5.72
2023-05-21T14:49:54.712Z,5.05
2023-05-21T14:55:58.231Z,5.72
2023-05-21T15:02:02.176Z,4.97
2023-05-21T15:08:09.567Z,5.75
2023-05-21T15:14:13.125Z,4.97
2023-05-21T15:20:16.899Z,4.35
2023-05-21T15:26:22.831Z,4.95
2023-05-21T15:32:26.550Z,4.80
2023-05-21T15:38:30.576Z,4.88
2023-05-21T15:44:35.364Z,5.50
2023-05-21T15:50:38.836Z,4.93
2023-05-21T15:56:42.427Z,5.20
2023-05-21T16:02:47.337Z,4.97
2023-05-21T16:08:50.935Z,4.00
2023-05-21T16:14:54.445Z,4.38
2023-05-21T16:20:59.528Z,4.72
2023-05-21T16:27:02.936Z,4.85
2023-05-21T16:33:06.726Z,4.78
2023-05-21T16:39:11.715Z,4.30
2023-05-21T16:45:20.540Z,4.47
2023-05-21T16:51:24.119Z,4.78
2023-05-21T16:57:29.120Z,5.13
2023-05-21T17:03:34.682Z,4.45
2023-05-21T17:09:38.308Z,4.88
2023-05-21T17:15:43.151Z,4.72
2023-05-21T17:21:46.680Z,4.90
2023-05-21T17:27:52.775Z,5.15
2023-05-21T17:33:57.632Z,4.07
2023-05-21T17:40:01.351Z,4.05
2023-05-21T17:46:04.835Z,4.60
2023-05-21T17:52:10.148Z,4.13
2023-05-21T17:58:13.610Z,4.07
2023-05-21T18:04:17.116Z,3.60
2023-05-21T18:10:21.998Z,3.92
2023-05-21T18:16:25.587Z,4.38
2023-05-21T18:22:29.414Z,4.00
2023-05-21T18:28:34.747Z,4.43
2023-05-21T18:34:38.216Z,4.35
2023-05-21T18:40:41.618Z,4.57
2023-05-21T18:46:46.537Z,3.85
2023-05-21T18:52:51.594Z,4.25
2023-05-21T18:58:55.269Z,4.80
2023-05-21T19:05:01.945Z,5.13
2023-05-21T19:11:07.309Z,4.28
2023-05-21T19:17:11.007Z,4.53
2023-05-21T19:23:15.904Z,4.78
2023-05-21T19:29:19.641Z,4.57
2023-05-21T19:35:23.484Z,5.25
2023-05-21T19:41:28.317Z,4.40
2023-05-21T19:47:32.284Z,4.38
2023-05-21T19:53:36.526Z,4.57
2023-05-21T19:59:41.392Z,4.40
2023-05-21T20:05:44.819Z,4.47
2023-05-21T20:11:48.341Z,4.65
2023-05-21T20:17:53.327Z,4.50
2023-05-21T20:23:56.990Z,4.13
2023-05-21T20:30:00.559Z,4.32
2023-05-21T20:36:05.685Z,4.75
2023-05-21T20:42:10.776Z,5.45
2023-05-21T20:48:14.295Z,5.38
2023-05-21T20:54:19.083Z,4.55
2023-05-21T21:00:22.940Z,5.40
2023-05-21T21:06:30.063Z,5.88
2023-05-21T21:12:34.900Z,5.25
2023-05-21T21:18:38.325Z,5.53
2023-05-21T21:24:41.860Z,5.75
2023-05-21T21:30:47.212Z,6.25
2023-05-21T21:36:51.324Z,6.13
2023-05-21T21:42:54.862Z,5.80
2023-05-21T21:48:59.721Z,6.20
2023-05-21T21:55:03.227Z,6.10
2023-05-21T22:01:06.845Z,5.57
2023-05-21T22:07:18.126Z,6.25
2023-05-21T22:13:21.706Z,6.28
2023-05-21T22:19:25.378Z,6.35
2023-05-21T22:25:30.234Z,7.05
2023-05-21T22:31:33.755Z,6.85
2023-05-21T22:37:38.242Z,6.18
2023-05-21T22:43:43.132Z,5.68
2023-05-21T22:49:47.206Z,6.38
2023-05-21T22:55:50.740Z,5.90
2023-05-21T23:01:55.839Z,7.20
2023-05-21T23:07:59.425Z,6.93
2023-05-21T23:14:02.884Z,7.90
2023-05-21T23:20:09.312Z,6.78
2023-05-21T23:26:12.850Z,6.97
2023-05-21T23:32:16.300Z,6.78
2023-05-21T23:38:21.240Z,7.03
2023-05-21T23:44:24.932Z,7.57
2023-05-21T23:50:28.430Z,8.15
2023-05-21T23:56:33.207Z,8.02
